createdAt,value
2016-12-13T00:00:18.529Z,80.91
2016-12-13T00:01:29.797Z,80.82
2016-12-13T00:02:40.948Z,80.82
2016-12-13T00:03:52.147Z,81.77
2016-12-13T00:05:03.717Z,81.48
2016-12-13T00:06:14.873Z,81.38
2016-12-13T00:07:26.042Z,81.96
2016-12-13T00:08:37.219Z,81.29
2016-12-13T00:09:48.342Z,81.86
2016-12-13T00:11:00.031Z,81.86
2016-12-13T00:12:11.224Z,81.58
2016-12-13T00:13:22.355Z,82.05
2016-12-13T00:14:33.613Z,81.86
2016-12-13T00:15:45.408Z,81.96
2016-12-13T00:16:56.561Z,82.15
2016-12-13T00:18:08.126Z,82.05
2016-12-13T00:19:19.329Z,82.05
2016-12-13T00:20:30.576Z,81.96
2016-12-13T00:21:41.718Z,82.05
2016-12-13T00:22:52.838Z,81.96
2016-12-13T00:24:04.058Z,81.86
2016-12-13T00:25:15.208Z,81.67
2016-12-13T00:26:26.326Z,81.96
2016-12-13T00:27:37.825Z,82.05
2016-12-13T00:28:49.033Z,82.01
2016-12-13T00:30:00.280Z,81.92
2016-12-13T00:31:11.469Z,82.15
2016-12-13T00:32:22.628Z,82.39
2016-12-13T00:33:33.744Z,82.2
2016-12-13T00:34:45.046Z,82.29
2016-12-13T00:35:56.213Z,82.39
2016-12-13T00:37:07.406Z,82.01
2016-12-13T00:38:18.728Z,81.92
2016-12-13T00:39:29.914Z,82.58
2016-12-13T00:40:41.376Z,82.49
2016-12-13T00:41:52.830Z,82.49
2016-12-13T00:43:04.448Z,82.87
2016-12-13T00:44:15.574Z,83.06
2016-12-13T00:45:26.738Z,82.58
2016-12-13T00:46:37.854Z,82.87
2016-12-13T00:47:49.015Z,82.68
2016-12-13T00:49:00.200Z,83.15
2016-12-13T00:50:11.428Z,83.15
2016-12-13T00:51:22.574Z,82.87
2016-12-13T00:52:34.066Z,82.87
2016-12-13T00:53:45.241Z,82.68
2016-12-13T00:54:56.412Z,83.06
2016-12-13T00:56:07.574Z,82.87
2016-12-13T00:57:20.901Z,83.06
2016-12-13T00:58:32.030Z,82.49
2016-12-13T00:59:43.256Z,82.39
2016-12-13T01:00:54.438Z,82.29
2016-12-13T01:02:05.674Z,82.77
2016-12-13T01:03:16.846Z,82.68
2016-12-13T01:04:27.978Z,82.29
2016-12-13T01:05:39.176Z,82.49
2016-12-13T01:06:50.346Z,83.15
2016-12-13T01:08:01.450Z,82.58
2016-12-13T01:09:12.744Z,83.34
2016-12-13T01:10:24.238Z,83.25
2016-12-13T01:11:36.002Z,83.25
2016-12-13T01:12:47.140Z,83.44
2016-12-13T01:13:58.321Z,83.06
2016-12-13T01:15:09.493Z,82.77
2016-12-13T01:16:20.720Z,82.87
2016-12-13T01:17:31.834Z,82.68
2016-12-13T01:18:43.027Z,82.39
2016-12-13T01:19:54.213Z,82.49
2016-12-13T01:21:05.359Z,82.29
2016-12-13T01:22:16.547Z,82.58
2016-12-13T01:23:27.754Z,82.49
2016-12-13T01:24:38.983Z,82.1
2016-12-13T01:25:50.089Z,82.49
2016-12-13T01:27:01.239Z,82.96
2016-12-13T01:28:12.442Z,82.68
2016-12-13T01:29:23.566Z,82.68
2016-12-13T01:30:34.742Z,82.29
2016-12-13T01:31:45.884Z,82.87
2016-12-13T01:32:57.054Z,82.96
2016-12-13T01:34:08.198Z,83.06
2016-12-13T01:35:19.420Z,83.15
2016-12-13T01:36:30.606Z,83.2
2016-12-13T01:37:41.867Z,83.53
2016-12-13T01:38:53.131Z,83.39
2016-12-13T01:40:04.305Z,83.49
2016-12-13T01:41:16.940Z,83.3
2016-12-13T01:42:28.411Z,83.68
2016-12-13T01:43:40.251Z,84.16
2016-12-13T01:44:51.436Z,83.3
2016-12-13T01:46:02.910Z,83.68
2016-12-13T01:47:14.113Z,83.97
2016-12-13T01:48:25.317Z,83.49
2016-12-13T01:49:36.482Z,83.78
2016-12-13T01:50:47.614Z,83.97
2016-12-13T01:51:58.836Z,84.06
2016-12-13T01:53:10.014Z,83.87
2016-12-13T01:54:21.144Z,83.87
2016-12-13T01:55:32.335Z,83.78
2016-12-13T01:56:43.475Z,84.06
2016-12-13T01:57:54.623Z,84.34
2016-12-13T01:59:05.740Z,84.16
2016-12-13T02:00:16.970Z,84.25
2016-12-13T02:01:28.129Z,83.97
2016-12-13T02:02:39.251Z,84.87
2016-12-13T02:03:50.388Z,84.06
2016-12-13T02:05:01.514Z,84.11
2016-12-13T02:06:12.758Z,84.4
2016-12-13T02:07:24.325Z,84.68
2016-12-13T02:08:35.484Z,84.3
2016-12-13T02:09:46.602Z,84.97
2016-12-13T02:10:59.981Z,84.97
2016-12-13T02:12:11.157Z,84.59
2016-12-13T02:13:22.340Z,84.59
2016-12-13T02:14:33.503Z,84.21
2016-12-13T02:15:44.711Z,84.4
2016-12-13T02:16:55.817Z,84.4
2016-12-13T02:18:06.997Z,84.49
2016-12-13T02:19:18.467Z,84.49
2016-12-13T02:20:29.634Z,84.4
2016-12-13T02:21:40.743Z,84.78
2016-12-13T02:22:51.914Z,84.59
2016-12-13T02:24:03.166Z,84.78
2016-12-13T02:25:14.639Z,83.64
2016-12-13T02:26:25.833Z,83.83
2016-12-13T02:27:36.950Z,84.01
2016-12-13T02:28:48.088Z,83.92
2016-12-13T02:31:01.448Z,84.3
2016-12-13T02:32:13.827Z,84.68
2016-12-13T02:33:25.012Z,84.49
2016-12-13T02:34:51.057Z,84.59
2016-12-13T02:36:02.611Z,84.49
2016-12-13T02:37:13.808Z,84.21
2016-12-13T02:38:25.000Z,84.49
2016-12-13T02:39:36.394Z,84.11
2016-12-13T02:40:47.833Z,83.64
2016-12-13T02:41:59.054Z,83.78
2016-12-13T02:43:10.212Z,83.83
2016-12-13T02:44:21.606Z,83.92
2016-12-13T02:45:33.052Z,83.83
2016-12-13T02:46:44.236Z,84.17
2016-12-13T02:49:36.468Z,84.74
2016-12-13T02:50:47.860Z,84.64
2016-12-13T02:51:58.989Z,84.64
2016-12-13T02:53:10.169Z,84.45
2016-12-13T02:54:21.326Z,84.45
2016-12-13T02:55:32.762Z,84.55
2016-12-13T02:56:44.510Z,84.45
2016-12-13T02:57:55.743Z,84.36
2016-12-13T02:59:06.964Z,84.55
2016-12-13T03:01:44.704Z,84.45
2016-12-13T03:02:56.321Z,84.45
2016-12-13T03:04:07.505Z,84.45
2016-12-13T03:05:18.690Z,84.55
2016-12-13T03:06:29.876Z,84.36
2016-12-13T03:07:41.348Z,84.45
2016-12-13T03:08:52.766Z,84.45
2016-12-13T03:10:04.256Z,85.11
2016-12-13T03:11:15.391Z,85.02
2016-12-13T03:12:26.622Z,85.59
2016-12-13T03:13:37.904Z,85.87
2016-12-13T03:14:49.349Z,85.49
2016-12-13T03:16:00.788Z,85.78
2016-12-13T03:17:12.295Z,85.59
2016-12-13T03:18:23.734Z,85.11
2016-12-13T03:19:34.887Z,85.59
2016-12-13T03:20:46.634Z,85.4
2016-12-13T03:21:58.410Z,84.64
2016-12-13T03:23:09.854Z,85.3
2016-12-13T03:24:20.999Z,85.49
2016-12-13T03:25:32.227Z,86.16
2016-12-13T03:26:45.781Z,85.78
2016-12-13T03:27:57.230Z,85.87
2016-12-13T03:29:08.431Z,86.25
2016-12-13T03:30:19.565Z,85.87
2016-12-13T03:31:30.747Z,85.21
2016-12-13T03:32:42.443Z,85.02
2016-12-13T03:33:53.891Z,84.83
2016-12-13T03:35:05.027Z,83.97
2016-12-13T03:36:16.172Z,84.21
2016-12-13T03:37:27.348Z,83.54
2016-12-13T03:38:38.742Z,84.36
2016-12-13T03:39:50.290Z,83.83
2016-12-13T03:41:02.020Z,84.4
2016-12-13T03:42:13.192Z,84.36
2016-12-13T03:43:24.353Z,84.07
2016-12-13T03:44:35.742Z,83.83
2016-12-13T03:45:47.170Z,84.01
2016-12-13T03:46:58.321Z,83.97
2016-12-13T03:48:09.463Z,83.64
2016-12-13T03:49:35.721Z,83.88
2016-12-13T03:50:46.884Z,83.69
2016-12-13T03:51:58.019Z,83.5
2016-12-13T03:53:09.155Z,83.97
2016-12-13T03:54:20.335Z,84.07
2016-12-13T03:55:31.473Z,84.01
2016-12-13T03:56:42.689Z,83.97
2016-12-13T03:57:54.160Z,84.01
2016-12-13T03:59:05.321Z,83.83
2016-12-13T04:00:16.522Z,83.16
2016-12-13T04:01:27.654Z,84.01
2016-12-13T04:02:39.154Z,83.36
2016-12-13T04:03:50.280Z,83.83
2016-12-13T04:05:01.429Z,85.06
2016-12-13T04:06:12.600Z,84.97
2016-12-13T04:07:23.752Z,84.87
2016-12-13T04:08:35.310Z,84.68
2016-12-13T04:09:46.438Z,85.06
2016-12-13T04:10:57.998Z,85.72
2016-12-13T04:12:09.263Z,85.35
2016-12-13T04:13:20.460Z,85.06
2016-12-13T04:14:31.707Z,84.21
2016-12-13T04:15:42.871Z,82.88
2016-12-13T04:16:54.104Z,81.74
2016-12-13T04:18:05.295Z,81.84
2016-12-13T04:19:16.530Z,82.03
2016-12-13T04:20:28.099Z,81.84
2016-12-13T04:21:39.276Z,82.31
2016-12-13T04:22:50.741Z,82.03
2016-12-13T04:24:01.905Z,81.93
2016-12-13T04:25:13.074Z,82.03
2016-12-13T04:26:24.566Z,82.4
2016-12-13T04:27:35.735Z,82.5
2016-12-13T04:28:46.879Z,82.78
2016-12-13T04:29:58.372Z,83.16
2016-12-13T04:31:09.523Z,82.69
2016-12-13T04:32:20.799Z,82.59
2016-12-13T04:34:57.960Z,82.27
2016-12-13T04:36:09.147Z,82.27
2016-12-13T04:37:20.350Z,82.84
2016-12-13T04:38:31.699Z,83.31
2016-12-13T04:39:42.938Z,83.22
2016-12-13T04:40:56.274Z,83.59
2016-12-13T04:42:07.742Z,83.5
2016-12-13T04:43:19.152Z,83.88
2016-12-13T04:44:30.296Z,84.26
2016-12-13T04:45:41.475Z,84.55
2016-12-13T04:46:52.731Z,84.55
2016-12-13T04:48:03.872Z,84.17
2016-12-13T04:49:15.404Z,83.97
2016-12-13T04:50:26.532Z,83.97
2016-12-13T04:51:37.663Z,83.22
2016-12-13T04:52:48.773Z,83.59
2016-12-13T04:54:00.007Z,83.59
2016-12-13T04:55:11.855Z,83.4
2016-12-13T04:56:23.299Z,83.88
2016-12-13T04:57:34.523Z,83.59
2016-12-13T04:58:45.658Z,83.88
2016-12-13T04:59:57.097Z,83.59
2016-12-13T05:01:08.390Z,83.78
2016-12-13T05:02:19.549Z,83.97
2016-12-13T05:03:30.787Z,83.69
2016-12-13T05:04:42.088Z,83.69
2016-12-13T05:05:53.205Z,83.78
2016-12-13T05:07:04.435Z,83.69
2016-12-13T05:08:17.734Z,83.88
2016-12-13T05:09:29.139Z,84.07
2016-12-13T05:10:40.419Z,84.17
2016-12-13T05:11:51.547Z,83.78
2016-12-13T05:13:02.704Z,83.12
2016-12-13T05:14:14.396Z,83.22
2016-12-13T05:15:25.706Z,83.36
2016-12-13T05:16:36.895Z,83.65
2016-12-13T05:17:48.018Z,83.74
2016-12-13T05:18:59.494Z,84.12
2016-12-13T05:20:11.014Z,84.59
2016-12-13T05:21:22.270Z,84.22
2016-12-13T05:22:33.905Z,84.12
2016-12-13T05:23:45.103Z,84.31
2016-12-13T05:24:56.297Z,84.69
2016-12-13T05:26:07.468Z,84.64
2016-12-13T05:27:18.750Z,83.97
2016-12-13T05:28:29.939Z,84.07
2016-12-13T05:29:41.383Z,83.22
2016-12-13T05:30:52.739Z,82.17
2016-12-13T05:32:03.905Z,82.46
2016-12-13T05:33:28.301Z,81.98
2016-12-13T05:34:39.923Z,82.17
2016-12-13T05:35:52.007Z,82.27
2016-12-13T05:37:04.234Z,82.27
2016-12-13T05:38:24.570Z,82.74
2016-12-13T05:39:35.684Z,83.22
2016-12-13T05:40:46.872Z,83.4
2016-12-13T05:41:58.058Z,83.27
2016-12-13T05:43:09.266Z,82.98
2016-12-13T05:44:20.465Z,83.17
2016-12-13T05:45:33.453Z,82.51
2016-12-13T05:46:54.121Z,82.79
2016-12-13T05:48:05.507Z,82.42
2016-12-13T05:49:17.444Z,82.89
2016-12-13T05:50:28.789Z,83.36
2016-12-13T05:51:40.358Z,82.7
2016-12-13T05:52:52.102Z,83.36
2016-12-13T05:54:04.080Z,83.46
2016-12-13T05:55:18.261Z,83.27
2016-12-13T05:56:30.321Z,83.27
2016-12-13T05:57:42.369Z,83.17
2016-12-13T05:58:54.661Z,83.46
2016-12-13T06:00:06.831Z,83.55
2016-12-13T06:01:18.553Z,83.84
2016-12-13T06:02:29.819Z,83.84
2016-12-13T06:03:41.082Z,84.59
2016-12-13T06:04:52.333Z,85.83
2016-12-13T06:06:03.917Z,85.36
2016-12-13T06:07:15.077Z,86.3
2016-12-13T06:08:26.210Z,86.49
2016-12-13T06:09:37.470Z,87.35
2016-12-13T06:10:48.584Z,88.2
2016-12-13T06:12:00.352Z,88.87
2016-12-13T06:13:11.493Z,90.05
2016-12-13T06:14:22.616Z,90.53
2016-12-13T06:15:33.799Z,91
2016-12-13T06:16:45.021Z,91.19
2016-12-13T06:17:57.118Z,92.52
2016-12-13T06:19:08.332Z,92.71
2016-12-13T06:20:19.540Z,92.71
2016-12-13T06:21:30.770Z,92.61
2016-12-13T06:22:42.029Z,92.52
2016-12-13T06:23:53.799Z,92.04
2016-12-13T06:25:05.080Z,91.99
2016-12-13T06:26:16.238Z,91.05
2016-12-13T06:27:27.398Z,91.05
2016-12-13T06:28:38.879Z,91.05
2016-12-13T06:29:50.561Z,90.67
2016-12-13T06:31:01.743Z,91.05
2016-12-13T06:32:12.891Z,91.61
2016-12-13T06:33:24.192Z,91.05
2016-12-13T06:34:35.404Z,91.05
2016-12-13T06:35:47.136Z,91.14
2016-12-13T06:36:58.596Z,91.14
2016-12-13T06:38:09.739Z,91.14
2016-12-13T06:39:20.929Z,91.05
2016-12-13T06:40:32.372Z,91.14
2016-12-13T06:41:44.128Z,91.99
2016-12-13T06:42:55.300Z,92.09
2016-12-13T06:44:06.436Z,92.57
2016-12-13T06:45:18.273Z,92.28
2016-12-13T06:46:29.762Z,92.76
2016-12-13T06:47:41.446Z,92.94
2016-12-13T06:48:52.964Z,92.76
2016-12-13T06:50:04.100Z,92.94
2016-12-13T06:51:15.335Z,92.38
2016-12-13T06:52:26.525Z,92.76
2016-12-13T06:53:38.489Z,92.28
2016-12-13T06:54:49.944Z,91.8
2016-12-13T06:56:01.119Z,91.24
2016-12-13T06:57:12.299Z,91.61
2016-12-13T06:58:23.775Z,91.8
2016-12-13T06:59:35.736Z,91.99
2016-12-13T07:00:46.894Z,92.09
2016-12-13T07:01:58.061Z,92.09
2016-12-13T07:03:09.250Z,92.57
2016-12-13T07:04:20.760Z,92.38
2016-12-13T07:05:32.507Z,92.47
2016-12-13T07:06:43.690Z,92.47
2016-12-13T07:07:54.863Z,92.61
2016-12-13T07:09:08.553Z,92.66
2016-12-13T07:10:19.689Z,92.52
2016-12-13T07:11:31.413Z,91.95
2016-12-13T07:12:42.849Z,91.99
2016-12-13T07:13:55.627Z,91.76
2016-12-13T07:15:07.077Z,91.61
2016-12-13T07:16:18.318Z,91.05
2016-12-13T07:17:29.730Z,90.95
2016-12-13T07:18:41.814Z,90.86
2016-12-13T07:19:53.570Z,90.67
2016-12-13T07:21:04.911Z,90.86
2016-12-13T07:22:16.083Z,90.76
2016-12-13T07:23:28.632Z,90.67
2016-12-13T07:24:43.729Z,90.86
2016-12-13T07:25:55.668Z,90.86
2016-12-13T07:27:08.267Z,90.95
2016-12-13T07:28:20.783Z,90.86
2016-12-13T07:29:32.902Z,91.42
2016-12-13T07:30:44.853Z,90.67
2016-12-13T07:31:56.659Z,91.05
2016-12-13T07:33:08.384Z,91.24
2016-12-13T07:34:20.009Z,91.24
2016-12-13T07:35:31.968Z,90.48
2016-12-13T07:36:43.868Z,90.1
2016-12-13T07:37:55.740Z,90.57
2016-12-13T07:39:07.257Z,90.67
2016-12-13T07:40:18.408Z,90.48
2016-12-13T07:41:29.893Z,90.38
2016-12-13T07:42:41.051Z,90.53
2016-12-13T07:43:52.473Z,90.34
2016-12-13T07:45:03.906Z,90.24
2016-12-13T07:46:15.187Z,89.77
2016-12-13T07:47:26.689Z,89.91
2016-12-13T07:48:37.929Z,90.1
2016-12-13T07:49:49.341Z,89.62
2016-12-13T07:51:00.581Z,89.15
2016-12-13T07:52:12.005Z,89.34
2016-12-13T07:53:23.163Z,89.34
2016-12-13T07:54:34.333Z,89.39
2016-12-13T07:55:45.569Z,90.05
2016-12-13T07:56:56.787Z,89.15
2016-12-13T07:58:07.948Z,88.82
2016-12-13T07:59:19.921Z,89.15
2016-12-13T08:00:31.030Z,89.25
2016-12-13T08:01:42.243Z,89.25
2016-12-13T08:02:53.457Z,89.77
2016-12-13T08:04:05.221Z,89.15
2016-12-13T08:05:16.900Z,89.29
2016-12-13T08:06:28.443Z,89.86
2016-12-13T08:07:39.834Z,90.15
2016-12-13T08:08:51.362Z,89.86
2016-12-13T08:10:02.867Z,89.81
2016-12-13T08:11:14.393Z,89.34
2016-12-13T08:12:26.169Z,89.43
2016-12-13T08:13:37.296Z,89.15
2016-12-13T08:14:48.460Z,88.48
2016-12-13T08:15:59.659Z,88.96
2016-12-13T08:17:11.070Z,88.25
2016-12-13T08:18:22.259Z,88.48
2016-12-13T08:19:33.426Z,88.87
2016-12-13T08:20:45.128Z,88.96
2016-12-13T08:21:56.921Z,88.96
2016-12-13T08:23:10.577Z,88.87
2016-12-13T08:24:22.073Z,88.48
2016-12-13T08:25:33.205Z,88.96
2016-12-13T08:26:44.600Z,87.73
2016-12-13T08:29:23.012Z,88.39
2016-12-13T08:30:34.204Z,88.39
2016-12-13T08:31:45.355Z,87.73
2016-12-13T08:32:56.475Z,87.63
2016-12-13T08:34:07.689Z,88.01
2016-12-13T08:35:19.154Z,87.54
2016-12-13T08:36:30.629Z,87.92
2016-12-13T08:37:42.075Z,87.73
2016-12-13T08:38:53.245Z,87.92
2016-12-13T08:40:04.825Z,87.82
2016-12-13T08:41:16.302Z,87.82
2016-12-13T08:42:27.820Z,88.1
2016-12-13T08:43:38.958Z,87.92
2016-12-13T08:44:50.140Z,87.87
2016-12-13T08:46:01.318Z,87.82
2016-12-13T08:47:13.063Z,87.63
2016-12-13T08:48:24.809Z,87.92
2016-12-13T08:49:36.340Z,88.58
2016-12-13T08:50:47.575Z,87.73
2016-12-13T08:51:59.084Z,88.2
2016-12-13T08:53:10.515Z,87.92
2016-12-13T08:54:21.963Z,87.63
2016-12-13T08:55:33.165Z,87.35
2016-12-13T08:56:44.329Z,87.92
2016-12-13T08:57:55.582Z,87.59
2016-12-13T08:59:07.918Z,88.06
2016-12-13T09:00:19.465Z,88.35
2016-12-13T09:01:30.842Z,88.06
2016-12-13T09:02:42.424Z,88.25
2016-12-13T09:03:53.796Z,89.48
2016-12-13T09:05:06.124Z,88.68
2016-12-13T09:06:17.978Z,88.2
2016-12-13T09:07:29.553Z,88.1
2016-12-13T09:08:41.017Z,87.63
2016-12-13T09:09:52.993Z,88.01
2016-12-13T09:11:04.956Z,87.77
2016-12-13T09:12:16.850Z,87.87
2016-12-13T09:13:28.213Z,87.82
2016-12-13T09:14:39.433Z,87.68
2016-12-13T09:15:50.620Z,87.87
2016-12-13T09:17:02.374Z,88.63
2016-12-13T09:18:14.085Z,88.92
2016-12-13T09:19:25.265Z,87.87
2016-12-13T09:20:36.717Z,88.35
2016-12-13T09:21:47.913Z,88.54
2016-12-13T09:22:59.308Z,87.97
2016-12-13T09:24:10.777Z,88.25
2016-12-13T09:25:21.994Z,87.77
2016-12-13T09:26:33.180Z,88.35
2016-12-13T09:27:44.391Z,88.01
2016-12-13T09:28:55.769Z,87.63
2016-12-13T09:30:07.286Z,87.82
2016-12-13T09:31:18.408Z,88.16
2016-12-13T09:32:29.688Z,88.1
2016-12-13T09:33:40.885Z,87.92
2016-12-13T09:34:52.243Z,87.63
2016-12-13T09:36:03.733Z,87.45
2016-12-13T09:37:17.215Z,87.35
2016-12-13T09:38:28.618Z,87.25
2016-12-13T09:39:40.179Z,87.35
2016-12-13T09:40:51.922Z,87.35
2016-12-13T09:42:03.599Z,87.63
2016-12-13T09:43:14.754Z,86.97
2016-12-13T09:44:25.981Z,87.16
2016-12-13T09:45:37.286Z,86.68
2016-12-13T09:46:49.076Z,86.87
2016-12-13T09:48:00.559Z,87.06
2016-12-13T09:49:11.816Z,87.16
2016-12-13T09:50:23.128Z,86.68
2016-12-13T09:51:34.739Z,86.21
2016-12-13T09:52:46.519Z,86.78
2016-12-13T09:53:58.532Z,86.87
2016-12-13T09:55:09.835Z,87.45
2016-12-13T09:56:21.533Z,87.63
2016-12-13T09:57:32.856Z,87.45
2016-12-13T09:58:44.029Z,87.45
2016-12-13T09:59:55.842Z,87.45
2016-12-13T10:01:07.991Z,87.16
2016-12-13T10:02:19.798Z,87.63
2016-12-13T10:03:31.081Z,88.58
2016-12-13T10:04:42.988Z,87.68
2016-12-13T10:05:54.748Z,87.35
2016-12-13T10:07:05.947Z,87.35
2016-12-13T10:08:17.470Z,86.97
2016-12-13T10:09:28.949Z,86.87
2016-12-13T10:10:40.099Z,86.02
2016-12-13T10:11:51.585Z,86.68
2016-12-13T10:13:02.765Z,86.21
2016-12-13T10:14:13.961Z,86.87
2016-12-13T10:15:25.355Z,87.63
2016-12-13T10:16:36.600Z,87.06
2016-12-13T10:17:48.347Z,87.25
2016-12-13T10:18:59.521Z,87.4
2016-12-13T10:20:10.715Z,87.25
2016-12-13T10:21:22.226Z,87.45
2016-12-13T10:22:48.212Z,87.16
2016-12-13T10:23:59.627Z,87.63
2016-12-13T10:25:10.800Z,87.35
2016-12-13T10:26:22.008Z,87.4
2016-12-13T10:27:33.495Z,87.35
2016-12-13T10:28:45.194Z,87.35
2016-12-13T10:29:56.969Z,87.45
2016-12-13T10:31:08.236Z,87.73
2016-12-13T10:32:19.532Z,87.25
2016-12-13T10:33:30.678Z,87.45
2016-12-13T10:34:42.759Z,87.06
2016-12-13T10:35:54.178Z,86.78
2016-12-13T10:37:05.478Z,86.78
2016-12-13T10:38:16.671Z,86.59
2016-12-13T10:39:27.949Z,86.4
2016-12-13T10:40:39.461Z,86.3
2016-12-13T10:41:50.912Z,86.49
2016-12-13T10:43:02.348Z,86.49
2016-12-13T10:44:14.753Z,86.02
2016-12-13T10:45:27.551Z,86.4
2016-12-13T10:46:38.830Z,85.93
2016-12-13T10:47:50.673Z,86.11
2016-12-13T10:49:02.179Z,85.93
2016-12-13T10:50:14.637Z,86.21
2016-12-13T10:51:28.277Z,86.02
2016-12-13T10:52:39.435Z,85.83
2016-12-13T10:53:50.888Z,86.4
2016-12-13T10:55:02.021Z,86.11
2016-12-13T10:56:13.158Z,86.68
2016-12-13T10:57:24.602Z,86.49
2016-12-13T11:00:02.225Z,86.59
2016-12-13T11:01:13.374Z,86.49
2016-12-13T11:02:25.510Z,85.93
2016-12-13T11:03:37.865Z,86.11
2016-12-13T11:04:49.113Z,86.11
2016-12-13T11:06:00.534Z,85.55
2016-12-13T11:07:12.048Z,86.3
2016-12-13T11:08:23.233Z,86.02
2016-12-13T11:09:34.711Z,86.11
2016-12-13T11:10:45.910Z,86.21
2016-12-13T11:11:57.247Z,86.59
2016-12-13T11:13:11.517Z,86.68
2016-12-13T11:14:22.798Z,86.68
2016-12-13T11:15:33.990Z,86.78
2016-12-13T11:17:08.470Z,86.59
2016-12-13T11:18:19.856Z,86.78
2016-12-13T11:19:31.102Z,86.87
2016-12-13T11:20:42.286Z,86.59
2016-12-13T11:22:02.598Z,86.59
2016-12-13T11:23:13.736Z,86.87
2016-12-13T11:24:24.974Z,86.97
2016-12-13T11:25:36.158Z,86.21
2016-12-13T11:26:47.285Z,86.68
2016-12-13T11:27:58.400Z,86.78
2016-12-13T11:29:10.193Z,86.3
2016-12-13T11:30:21.427Z,86.87
2016-12-13T11:31:32.914Z,86.59
2016-12-13T11:32:44.055Z,86.78
2016-12-13T11:33:55.198Z,86.02
2016-12-13T11:35:06.377Z,85.74
2016-12-13T11:36:17.613Z,86.3
2016-12-13T11:37:29.244Z,86.59
2016-12-13T11:38:40.492Z,86.4
2016-12-13T11:39:51.778Z,86.02
2016-12-13T11:41:03.083Z,85.93
2016-12-13T11:42:15.033Z,85.36
2016-12-13T11:43:26.451Z,85.74
2016-12-13T11:44:38.204Z,85.26
2016-12-13T11:45:49.464Z,85.26
2016-12-13T11:47:00.681Z,85.45
2016-12-13T11:48:11.940Z,85.64
2016-12-13T11:49:23.484Z,85.55
2016-12-13T11:50:35.401Z,85.55
2016-12-13T11:51:48.983Z,85.93
2016-12-13T11:53:00.982Z,86.21
2016-12-13T11:54:12.320Z,85.55
2016-12-13T11:55:24.150Z,85.26
2016-12-13T11:56:38.449Z,85.55
2016-12-13T11:57:50.261Z,85.26
2016-12-13T11:59:01.628Z,85.17
2016-12-13T12:00:12.896Z,85.74
2016-12-13T12:01:24.665Z,85.26
2016-12-13T12:04:04.188Z,85.07
2016-12-13T12:05:17.868Z,84.69
2016-12-13T12:06:31.686Z,84.88
2016-12-13T12:07:43.008Z,84.78
2016-12-13T12:08:54.294Z,84.41
2016-12-13T12:10:05.557Z,84.69
2016-12-13T12:11:17.315Z,85.36
2016-12-13T12:12:28.915Z,85.26
2016-12-13T12:13:40.160Z,85.64
2016-12-13T12:14:51.404Z,85.36
2016-12-13T12:16:02.682Z,85.36
2016-12-13T12:17:14.212Z,85.74
2016-12-13T12:18:25.683Z,85.64
2016-12-13T12:19:36.920Z,85.45
2016-12-13T12:20:48.203Z,85.83
2016-12-13T12:22:00.321Z,85.64
2016-12-13T12:23:11.969Z,85.83
2016-12-13T12:24:23.797Z,86.59
2016-12-13T12:25:37.847Z,86.02
2016-12-13T12:26:49.066Z,86.97
2016-12-13T12:28:00.284Z,87.35
2016-12-13T12:29:11.488Z,87.54
2016-12-13T12:30:22.730Z,87.73
2016-12-13T12:31:34.048Z,88.1
2016-12-13T12:32:45.607Z,87.63
2016-12-13T12:33:56.772Z,87.25
2016-12-13T12:35:08.427Z,87.16
2016-12-13T12:36:19.973Z,86.78
2016-12-13T12:37:31.289Z,86.3
2016-12-13T12:38:43.017Z,85.74
2016-12-13T12:39:55.124Z,86.4
2016-12-13T12:41:07.397Z,86.68
2016-12-13T12:42:19.211Z,86.59
2016-12-13T12:43:31.312Z,86.3
2016-12-13T12:44:43.150Z,86.3
2016-12-13T12:45:56.846Z,85.93
2016-12-13T12:47:08.217Z,85.64
2016-12-13T12:48:20.075Z,85.17
2016-12-13T12:49:31.201Z,85.83
2016-12-13T12:50:42.548Z,85.17
2016-12-13T12:51:54.056Z,85.55
2016-12-13T12:53:06.112Z,85.45
2016-12-13T12:54:17.319Z,84.98
2016-12-13T12:55:28.840Z,85.74
2016-12-13T12:56:40.025Z,85.83
2016-12-13T12:57:51.622Z,85.64
2016-12-13T12:59:02.875Z,85.45
2016-12-13T13:00:14.353Z,85.36
2016-12-13T13:01:25.858Z,85.36
2016-12-13T13:02:37.266Z,85.64
2016-12-13T13:03:48.462Z,85.55
2016-12-13T13:04:59.662Z,85.36
2016-12-13T13:06:11.057Z,85.55
2016-12-13T13:07:22.277Z,85.17
2016-12-13T13:08:33.529Z,85.26
2016-12-13T13:09:44.801Z,84.98
2016-12-13T13:10:56.963Z,85.74
2016-12-13T13:12:08.539Z,85.26
2016-12-13T13:13:19.775Z,85.07
2016-12-13T13:14:30.909Z,85.26
2016-12-13T13:15:42.185Z,84.88
2016-12-13T13:16:54.282Z,84.78
2016-12-13T13:18:05.403Z,85.36
2016-12-13T13:19:16.794Z,85.45
2016-12-13T13:20:30.143Z,84.98
2016-12-13T13:21:41.914Z,84.88
2016-12-13T13:22:53.471Z,85.36
2016-12-13T13:24:04.728Z,85.26
2016-12-13T13:25:16.119Z,84.88
2016-12-13T13:26:27.825Z,85.26
2016-12-13T13:27:39.029Z,85.26
2016-12-13T13:28:50.483Z,85.45
2016-12-13T13:30:02.299Z,85.55
2016-12-13T13:31:13.480Z,85.74
2016-12-13T13:32:25.111Z,85.45
2016-12-13T13:33:37.233Z,85.26
2016-12-13T13:34:49.402Z,85.64
2016-12-13T13:36:00.684Z,85.55
2016-12-13T13:37:12.189Z,85.26
2016-12-13T13:38:24.922Z,84.59
2016-12-13T13:39:36.173Z,85.36
2016-12-13T13:40:47.819Z,85.36
2016-12-13T13:41:58.993Z,85.36
2016-12-13T13:43:10.367Z,85.45
2016-12-13T13:44:22.437Z,85.36
2016-12-13T13:45:33.715Z,85.45
2016-12-13T13:46:45.607Z,85.74
2016-12-13T13:47:56.879Z,85.74
2016-12-13T13:49:09.839Z,85.64
2016-12-13T13:50:21.479Z,85.83
2016-12-13T13:51:32.866Z,85.74
2016-12-13T13:52:44.382Z,85.93
2016-12-13T13:53:55.681Z,86.02
2016-12-13T13:55:07.617Z,86.02
2016-12-13T13:56:18.871Z,85.74
2016-12-13T13:57:30.413Z,85.83
2016-12-13T13:58:41.685Z,85.93
2016-12-13T13:59:53.361Z,85.83
2016-12-13T14:01:04.651Z,86.49
2016-12-13T14:02:16.130Z,86.4
2016-12-13T14:03:27.988Z,85.93
2016-12-13T14:04:39.296Z,86.02
2016-12-13T14:05:50.995Z,85.55
2016-12-13T14:07:02.258Z,85.74
2016-12-13T14:08:14.420Z,85.93
2016-12-13T14:09:25.994Z,85.55
2016-12-13T14:10:37.392Z,86.02
2016-12-13T14:11:49.736Z,86.3
2016-12-13T14:13:00.875Z,86.78
2016-12-13T14:14:13.125Z,86.59
2016-12-13T14:16:51.250Z,86.68
2016-12-13T14:18:02.627Z,86.68
2016-12-13T14:19:14.480Z,87.16
2016-12-13T14:20:25.847Z,87.3
2016-12-13T14:21:38.063Z,87.4
2016-12-13T14:22:49.386Z,87.59
2016-12-13T14:24:00.919Z,87.59
2016-12-13T14:25:12.266Z,87.77
2016-12-13T14:26:32.943Z,87.97
2016-12-13T14:27:44.276Z,87.97
2016-12-13T14:28:55.947Z,87.77
2016-12-13T14:35:27.470Z,87.77
2016-12-13T14:40:03.543Z,87.82
2016-12-13T14:43:40.610Z,87.92
2016-12-13T14:45:45.525Z,88.16
2016-12-13T14:46:56.938Z,88.63
2016-12-13T14:48:08.174Z,88.44
2016-12-13T14:52:56.715Z,88.73
2016-12-13T14:54:52.435Z,89.29
2016-12-13T14:57:59.629Z,89.2
2016-12-13T14:59:11.580Z,89.48
2016-12-13T15:00:23.261Z,89.2
2016-12-13T15:05:11.688Z,89.77
2016-12-13T15:06:38.253Z,89.96
2016-12-13T15:07:51.255Z,90.05
2016-12-13T15:09:02.795Z,89.77
2016-12-13T15:10:28.863Z,89.11
2016-12-13T15:13:36.550Z,89.11
2016-12-13T15:14:48.049Z,89.01
2016-12-13T15:15:59.778Z,89.77
2016-12-13T15:19:07.896Z,89.86
2016-12-13T15:20:19.758Z,89.39
2016-12-13T15:22:57.872Z,89.77
2016-12-13T15:26:49.358Z,90.05
2016-12-13T15:28:01.131Z,89.58
2016-12-13T15:29:12.956Z,90.15
2016-12-13T15:30:24.165Z,89.39
2016-12-13T15:33:47.431Z,89.58
2016-12-13T15:34:59.310Z,89.67
2016-12-13T15:36:10.818Z,89.67
2016-12-13T15:37:22.726Z,89.29
2016-12-13T15:38:35.762Z,89.11
2016-12-13T15:40:18.083Z,88.92
2016-12-13T15:42:00.392Z,89.2
2016-12-13T15:43:26.711Z,89.39
2016-12-13T15:44:52.917Z,89.11
2016-12-13T15:46:04.206Z,89.2
2016-12-13T15:49:41.110Z,89.01
2016-12-13T15:51:51.873Z,88.58
2016-12-13T15:53:04.118Z,89.11
2016-12-13T15:54:45.015Z,88.54
2016-12-13T15:58:22.360Z,88.54
2016-12-13T15:59:34.516Z,88.44
2016-12-13T16:00:46.021Z,88.54
2016-12-13T16:02:27.045Z,89.48
2016-12-13T16:03:53.314Z,89.01
2016-12-13T16:05:04.815Z,89.39
2016-12-13T16:06:31.187Z,88.82
2016-12-13T16:09:10.962Z,89.01
2016-12-13T16:10:22.839Z,88.44
2016-12-13T16:11:34.055Z,88.96
2016-12-13T16:12:45.660Z,89.11
2016-12-13T16:13:59.183Z,89.29
2016-12-13T16:15:10.375Z,89.01
2016-12-13T16:16:21.821Z,88.68
2016-12-13T16:17:33.080Z,88.54
2016-12-13T16:18:46.098Z,89.15